Decoded Metar for EIKN (CONNAUGHT in IRELAND) (IATA:NOC) | Meteo·Mobile Aviation Weather
aviador You're here:

EIKN Decoded Metar

CONNAUGHT in IRELAND
Report Time2019-04-23 08:00:00
UTC Time2019-04-23 08:08:04
Flight Rules vfr VFR
Wind110° at 08 kt
W.Decomp.*RWY 09: 7.2 kt HW 3.5 kt RCW
Visibility9999 m
Phenomena:N/A
Clouds:Scattered 042 Hf
Broken 090 Hf
Expected CloudBase > 1,200 ft AGL from Temp-Dew spread
Ceiling9,000 ft
Temp11°C (ISA -4)
Dew Point08°C (82% RH)
AAT7.7°C
QNH0996 hPa
Density Alt509 ft
Elevation210 ft
Report Wrong Elevation
Raw Report
METAR EIKN 230800Z 11008KT 080V150 9999 SCT042 BKN090 11/08 Q0996 NOSIG=

Extra information for EIKN:More info

Metar Taf Metar & Taf Last 4 Metars F.Rules Stats Wind Profile Meteogram Temp Stats Airport Information Weather charts Add Link Nearby VenuesMetar ALERT Operation Metar Decoded Social comments